sensor_id;sensor_type;location;lat;lon;timestamp;temperature;humidity
7461;DHT22;6757;52.258;12.840;2023-05-08T00:02:08;6.50;99.90
7461;DHT22;6757;52.258;12.840;2023-05-08T00:04:35;6.40;99.90
7461;DHT22;6757;52.258;12.840;2023-05-08T00:07:02;6.40;99.90
7461;DHT22;6757;52.258;12.840;2023-05-08T00:09:29;6.30;99.90
7461;DHT22;6757;52.258;12.840;2023-05-08T00:11:56;6.30;99.90
7461;DHT22;6757;52.258;12.840;2023-05-08T00:14:23;6.20;99.90
7461;DHT22;6757;52.258;12.840;2023-05-08T00:16:50;6.20;99.90
7461;DHT22;6757;52.258;12.840;2023-05-08T00:19:18;6.20;99.90
7461;DHT22;6757;52.258;12.840;2023-05-08T00:21:45;6.10;99.90
7461;DHT22;6757;52.258;12.840;2023-05-08T00:24:12;6.10;99.90
7461;DHT22;6757;52.258;12.840;2023-05-08T00:26:39;6.00;99.90
7461;DHT22;6757;52.258;12.840;2023-05-08T00:29:06;6.00;99.90
7461;DHT22;6757;52.258;12.840;2023-05-08T00:31:33;5.90;99.90
7461;DHT22;6757;52.258;12.840;2023-05-08T00:34:00;5.90;99.90
7461;DHT22;6757;52.258;12.840;2023-05-08T00:36:28;5.90;99.90
7461;DHT22;6757;52.258;12.840;2023-05-08T00:38:55;5.80;99.90
7461;DHT22;6757;52.258;12.840;2023-05-08T00:41:22;5.70;99.90
7461;DHT22;6757;52.258;12.840;2023-05-08T00:43:49;5.70;99.90
7461;DHT22;6757;52.258;12.840;2023-05-08T00:46:16;5.70;99.90
7461;DHT22;6757;52.258;12.840;2023-05-08T00:48:43;5.70;99.90
7461;DHT22;6757;52.258;12.840;2023-05-08T00:51:11;5.60;99.90
7461;DHT22;6757;52.258;12.840;2023-05-08T00:53:42;5.60;99.90
7461;DHT22;6757;52.258;12.840;2023-05-08T00:56:12;5.60;99.90
7461;DHT22;6757;52.258;12.840;2023-05-08T00:58:41;5.60;99.90
7461;DHT22;6757;52.258;12.840;2023-05-08T01:01:08;5.50;99.90
7461;DHT22;6757;52.258;12.840;2023-05-08T01:03:37;5.50;99.90
7461;DHT22;6757;52.258;12.840;2023-05-08T01:06:04;5.50;99.90
7461;DHT22;6757;52.258;12.840;2023-05-08T01:08:32;5.50;99.90
7461;DHT22;6757;52.258;12.840;2023-05-08T01:11:08;5.50;99.90
7461;DHT22;6757;52.258;12.840;2023-05-08T01:13:50;5.50;99.90
7461;DHT22;6757;52.258;12.840;2023-05-08T01:16:24;5.60;99.90
7461;DHT22;6757;52.258;12.840;2023-05-08T01:19:00;5.60;99.90
7461;DHT22;6757;52.258;12.840;2023-05-08T01:21:37;5.60;99.90
7461;DHT22;6757;52.258;12.840;2023-05-08T01:27:39;5.60;99.90
7461;DHT22;6757;52.258;12.840;2023-05-08T01:30:49;5.60;99.90
7461;DHT22;6757;52.258;12.840;2023-05-08T01:33:31;5.60;99.90
7461;DHT22;6757;52.258;12.840;2023-05-08T01:36:09;5.60;99.90
7461;DHT22;6757;52.258;12.840;2023-05-08T01:38:49;5.60;99.90
7461;DHT22;6757;52.258;12.840;2023-05-08T01:41:25;5.60;99.90
7461;DHT22;6757;52.258;12.840;2023-05-08T01:43:57;5.60;99.90
7461;DHT22;6757;52.258;12.840;2023-05-08T01:46:32;5.60;99.90
7461;DHT22;6757;52.258;12.840;2023-05-08T01:49:05;5.60;99.90
7461;DHT22;6757;52.258;12.840;2023-05-08T01:51:38;5.60;99.90
7461;DHT22;6757;52.258;12.840;2023-05-08T01:54:17;5.60;99.90
7461;DHT22;6757;52.258;12.840;2023-05-08T01:56:47;5.60;99.90
7461;DHT22;6757;52.258;12.840;2023-05-08T01:59:19;5.60;99.90
7461;DHT22;6757;52.258;12.840;2023-05-08T02:01:48;5.60;99.90
7461;DHT22;6757;52.258;12.840;2023-05-08T02:04:18;5.60;99.90
7461;DHT22;6757;52.258;12.840;2023-05-08T02:06:46;5.60;99.90
7461;DHT22;6757;52.258;12.840;2023-05-08T02:09:14;5.60;99.90
7461;DHT22;6757;52.258;12.840;2023-05-08T02:11:43;5.60;99.90
7461;DHT22;6757;52.258;12.840;2023-05-08T02:14:12;5.50;99.90
7461;DHT22;6757;52.258;12.840;2023-05-08T02:16:41;5.50;99.90
7461;DHT22;6757;52.258;12.840;2023-05-08T02:19:09;5.50;99.90
7461;DHT22;6757;52.258;12.840;2023-05-08T02:21:39;5.50;99.90
7461;DHT22;6757;52.258;12.840;2023-05-08T02:24:07;5.50;99.90
7461;DHT22;6757;52.258;12.840;2023-05-08T02:26:35;5.50;99.90
7461;DHT22;6757;52.258;12.840;2023-05-08T02:29:02;5.40;99.90
7461;DHT22;6757;52.258;12.840;2023-05-08T02:31:29;5.40;99.90
7461;DHT22;6757;52.258;12.840;2023-05-08T02:33:57;5.40;99.90
7461;DHT22;6757;52.258;12.840;2023-05-08T02:36:26;5.40;99.90
7461;DHT22;6757;52.258;12.840;2023-05-08T02:38:57;5.40;99.90
7461;DHT22;6757;52.258;12.840;2023-05-08T02:41:27;5.40;99.90
7461;DHT22;6757;52.258;12.840;2023-05-08T02:43:55;5.40;99.90
7461;DHT22;6757;52.258;12.840;2023-05-08T02:46:26;5.40;99.90
7461;DHT22;6757;52.258;12.840;2023-05-08T02:49:06;5.40;99.90
7461;DHT22;6757;52.258;12.840;2023-05-08T02:51:42;5.30;99.90
7461;DHT22;6757;52.258;12.840;2023-05-08T02:54:22;5.30;99.90
7461;DHT22;6757;52.258;12.840;2023-05-08T02:56:56;5.30;99.90
7461;DHT22;6757;52.258;12.840;2023-05-08T02:59:30;5.30;99.90
7461;DHT22;6757;52.258;12.840;2023-05-08T03:02:07;5.30;99.90
7461;DHT22;6757;52.258;12.840;2023-05-08T03:04:40;5.30;99.90
7461;DHT22;6757;52.258;12.840;2023-05-08T03:07:12;5.30;99.90
7461;DHT22;6757;52.258;12.840;2023-05-08T03:09:43;5.30;99.90
7461;DHT22;6757;52.258;12.840;2023-05-08T03:12:14;5.20;99.90
7461;DHT22;6757;52.258;12.840;2023-05-08T03:14:54;5.20;99.90
7461;DHT22;6757;52.258;12.840;2023-05-08T03:17:23;5.20;99.90
7461;DHT22;6757;52.258;12.840;2023-05-08T03:19:55;5.80;99.90
7461;DHT22;6757;52.258;12.840;2023-05-08T03:22:25;5.20;99.90
7461;DHT22;6757;52.258;12.840;2023-05-08T03:24:55;5.10;99.90
7461;DHT22;6757;52.258;12.840;2023-05-08T03:27:25;5.10;99.90
7461;DHT22;6757;52.258;12.840;2023-05-08T03:29:55;5.10;99.90
7461;DHT22;6757;52.258;12.840;2023-05-08T03:32:23;5.10;99.90
7461;DHT22;6757;52.258;12.840;2023-05-08T03:34:52;5.10;99.90
7461;DHT22;6757;52.258;12.840;2023-05-08T03:37:20;5.00;99.90
7461;DHT22;6757;52.258;12.840;2023-05-08T03:39:47;5.00;99.90
7461;DHT22;6757;52.258;12.840;2023-05-08T03:42:15;5.00;99.90
7461;DHT22;6757;52.258;12.840;2023-05-08T03:44:46;5.00;99.90
7461;DHT22;6757;52.258;12.840;2023-05-08T03:47:13;4.90;99.90
7461;DHT22;6757;52.258;12.840;2023-05-08T03:49:42;4.90;99.90
7461;DHT22;6757;52.258;12.840;2023-05-08T03:52:11;4.90;99.90
7461;DHT22;6757;52.258;12.840;2023-05-08T03:54:38;4.90;99.90
7461;DHT22;6757;52.258;12.840;2023-05-08T03:57:05;4.90;99.90
7461;DHT22;6757;52.258;12.840;2023-05-08T03:59:41;4.90;99.90
7461;DHT22;6757;52.258;12.840;2023-05-08T04:02:18;4.90;99.90
7461;DHT22;6757;52.258;12.840;2023-05-08T04:05:03;4.90;99.90
7461;DHT22;6757;52.258;12.840;2023-05-08T04:07:36;4.90;99.90
7461;DHT22;6757;52.258;12.840;2023-05-08T04:10:07;4.90;99.90
7461;DHT22;6757;52.258;12.840;2023-05-08T04:12:43;4.90;99.90
7461;DHT22;6757;52.258;12.840;2023-05-08T04:15:20;4.90;99.90
7461;DHT22;6757;52.258;12.840;2023-05-08T04:17:49;4.90;99.90
7461;DHT22;6757;52.258;12.840;2023-05-08T04:20:20;4.90;99.90
7461;DHT22;6757;52.258;12.840;2023-05-08T04:22:49;4.90;99.90
7461;DHT22;6757;52.258;12.840;2023-05-08T04:25:19;4.90;99.90
7461;DHT22;6757;52.258;12.840;2023-05-08T04:27:47;5.00;99.90
7461;DHT22;6757;52.258;12.840;2023-05-08T04:30:15;5.00;99.90
7461;DHT22;6757;52.258;12.840;2023-05-08T04:32:44;5.00;99.90
7461;DHT22;6757;52.258;12.840;2023-05-08T04:35:11;5.10;99.90
7461;DHT22;6757;52.258;12.840;2023-05-08T04:37:40;5.10;99.90
7461;DHT22;6757;52.258;12.840;2023-05-08T04:40:09;5.10;99.90
7461;DHT22;6757;52.258;12.840;2023-05-08T04:42:36;5.20;99.90
7461;DHT22;6757;52.258;12.840;2023-05-08T04:45:05;5.20;99.90
7461;DHT22;6757;52.258;12.840;2023-05-08T04:47:33;5.20;99.90
7461;DHT22;6757;52.258;12.840;2023-05-08T04:50:01;5.30;99.90
7461;DHT22;6757;52.258;12.840;2023-05-08T04:52:28;5.30;99.90
7461;DHT22;6757;52.258;12.840;2023-05-08T04:54:55;5.40;99.90
7461;DHT22;6757;52.258;12.840;2023-05-08T04:57:22;5.40;99.90
7461;DHT22;6757;52.258;12.840;2023-05-08T04:59:49;5.50;99.90
7461;DHT22;6757;52.258;12.840;2023-05-08T05:02:16;5.50;99.90
7461;DHT22;6757;52.258;12.840;2023-05-08T05:04:43;5.60;99.90
7461;DHT22;6757;52.258;12.840;2023-05-08T05:07:12;5.60;99.90
7461;DHT22;6757;52.258;12.840;2023-05-08T05:09:38;5.70;99.90
7461;DHT22;6757;52.258;12.840;2023-05-08T05:12:05;5.70;99.90
7461;DHT22;6757;52.258;12.840;2023-05-08T05:14:33;5.70;99.90
7461;DHT22;6757;52.258;12.840;2023-05-08T05:17:00;5.80;99.90
7461;DHT22;6757;52.258;12.840;2023-05-08T05:19:26;5.90;99.90
7461;DHT22;6757;52.258;12.840;2023-05-08T05:21:53;5.90;99.90
7461;DHT22;6757;52.258;12.840;2023-05-08T05:24:22;6.00;99.90
7461;DHT22;6757;52.258;12.840;2023-05-08T05:26:48;6.10;99.90
7461;DHT22;6757;52.258;12.840;2023-05-08T05:29:15;6.10;99.90
7461;DHT22;6757;52.258;12.840;2023-05-08T05:31:42;6.20;99.90
7461;DHT22;6757;52.258;12.840;2023-05-08T05:34:09;6.20;99.90
7461;DHT22;6757;52.258;12.840;2023-05-08T05:36:37;6.30;99.90
7461;DHT22;6757;52.258;12.840;2023-05-08T05:39:03;6.40;99.90
7461;DHT22;6757;52.258;12.840;2023-05-08T05:41:32;6.40;99.90
7461;DHT22;6757;52.258;12.840;2023-05-08T05:43:59;6.50;99.90
7461;DHT22;6757;52.258;12.840;2023-05-08T05:46:25;6.50;99.90
7461;DHT22;6757;52.258;12.840;2023-05-08T05:48:57;6.60;99.90
7461;DHT22;6757;52.258;12.840;2023-05-08T05:51:24;6.70;99.90
7461;DHT22;6757;52.258;12.840;2023-05-08T05:53:52;6.70;99.90
7461;DHT22;6757;52.258;12.840;2023-05-08T05:56:19;6.80;99.90
7461;DHT22;6757;52.258;12.840;2023-05-08T05:58:47;6.90;99.90
7461;DHT22;6757;52.258;12.840;2023-05-08T06:01:14;6.90;99.90
7461;DHT22;6757;52.258;12.840;2023-05-08T06:03:41;7.00;99.90
7461;DHT22;6757;52.258;12.840;2023-05-08T06:06:08;7.00;99.90
7461;DHT22;6757;52.258;12.840;2023-05-08T06:08:35;7.10;99.90
7461;DHT22;6757;52.258;12.840;2023-05-08T06:11:02;7.20;99.90
7461;DHT22;6757;52.258;12.840;2023-05-08T06:13:29;7.30;99.90
7461;DHT22;6757;52.258;12.840;2023-05-08T06:15:58;7.40;99.90
7461;DHT22;6757;52.258;12.840;2023-05-08T06:18:25;7.40;99.90
7461;DHT22;6757;52.258;12.840;2023-05-08T06:20:55;7.50;99.90
7461;DHT22;6757;52.258;12.840;2023-05-08T06:23:23;7.60;99.90
7461;DHT22;6757;52.258;12.840;2023-05-08T06:25:49;7.70;99.90
7461;DHT22;6757;52.258;12.840;2023-05-08T06:28:17;7.80;99.90
7461;DHT22;6757;52.258;12.840;2023-05-08T06:30:44;7.80;99.90
7461;DHT22;6757;52.258;12.840;2023-05-08T06:33:12;7.90;99.90
7461;DHT22;6757;52.258;12.840;2023-05-08T06:35:39;8.00;99.90
7461;DHT22;6757;52.258;12.840;2023-05-08T06:38:06;8.10;99.90
7461;DHT22;6757;52.258;12.840;2023-05-08T06:40:33;8.20;99.90
7461;DHT22;6757;52.258;12.840;2023-05-08T06:43:00;8.20;99.90
7461;DHT22;6757;52.258;12.840;2023-05-08T06:45:27;8.30;99.90
7461;DHT22;6757;52.258;12.840;2023-05-08T06:47:54;8.40;99.90
7461;DHT22;6757;52.258;12.840;2023-05-08T06:50:22;8.50;99.90
7461;DHT22;6757;52.258;12.840;2023-05-08T06:52:50;8.50;99.90
7461;DHT22;6757;52.258;12.840;2023-05-08T06:55:17;8.60;99.90
7461;DHT22;6757;52.258;12.840;2023-05-08T06:57:44;8.70;99.90
7461;DHT22;6757;52.258;12.840;2023-05-08T07:00:12;8.80;99.90
7461;DHT22;6757;52.258;12.840;2023-05-08T07:02:39;8.90;99.90
7461;DHT22;6757;52.258;12.840;2023-05-08T07:05:07;9.00;99.90
7461;DHT22;6757;52.258;12.840;2023-05-08T07:07:35;9.10;99.90
7461;DHT22;6757;52.258;12.840;2023-05-08T07:10:03;9.20;99.90
7461;DHT22;6757;52.258;12.840;2023-05-08T07:12:30;9.30;99.90
7461;DHT22;6757;52.258;12.840;2023-05-08T07:14:57;9.50;99.90
7461;DHT22;6757;52.258;12.840;2023-05-08T07:17:24;9.50;99.90
7461;DHT22;6757;52.258;12.840;2023-05-08T07:19:51;9.60;99.90
7461;DHT22;6757;52.258;12.840;2023-05-08T07:22:18;9.70;99.90
7461;DHT22;6757;52.258;12.840;2023-05-08T07:24:46;9.80;99.90
7461;DHT22;6757;52.258;12.840;2023-05-08T07:27:13;9.90;99.90
7461;DHT22;6757;52.258;12.840;2023-05-08T07:29:41;10.00;99.90
7461;DHT22;6757;52.258;12.840;2023-05-08T07:32:08;10.10;99.90
7461;DHT22;6757;52.258;12.840;2023-05-08T07:34:35;10.10;99.90
7461;DHT22;6757;52.258;12.840;2023-05-08T07:37:02;10.20;99.90
7461;DHT22;6757;52.258;12.840;2023-05-08T07:39:29;10.30;99.90
7461;DHT22;6757;52.258;12.840;2023-05-08T07:41:57;10.40;99.90
7461;DHT22;6757;52.258;12.840;2023-05-08T07:44:24;10.50;99.90
7461;DHT22;6757;52.258;12.840;2023-05-08T07:46:51;10.60;99.90
7461;DHT22;6757;52.258;12.840;2023-05-08T07:49:18;10.70;99.90
7461;DHT22;6757;52.258;12.840;2023-05-08T07:51:45;10.80;99.90
7461;DHT22;6757;52.258;12.840;2023-05-08T07:54:12;10.90;99.90
7461;DHT22;6757;52.258;12.840;2023-05-08T07:56:38;11.00;99.90
7461;DHT22;6757;52.258;12.840;2023-05-08T07:59:07;11.00;99.90
7461;DHT22;6757;52.258;12.840;2023-05-08T08:01:34;11.20;99.90
7461;DHT22;6757;52.258;12.840;2023-05-08T08:04:00;11.20;99.90
7461;DHT22;6757;52.258;12.840;2023-05-08T08:06:27;11.40;99.90
7461;DHT22;6757;52.258;12.840;2023-05-08T08:08:55;11.40;99.90
7461;DHT22;6757;52.258;12.840;2023-05-08T08:11:21;11.50;99.90
7461;DHT22;6757;52.258;12.840;2023-05-08T08:13:48;11.60;99.90
7461;DHT22;6757;52.258;12.840;2023-05-08T08:16:16;12.10;99.90
7461;DHT22;6757;52.258;12.840;2023-05-08T08:18:43;11.80;99.90
7461;DHT22;6757;52.258;12.840;2023-05-08T08:21:10;11.80;99.90
7461;DHT22;6757;52.258;12.840;2023-05-08T08:23:37;11.90;99.90
7461;DHT22;6757;52.258;12.840;2023-05-08T08:26:04;12.00;99.90
7461;DHT22;6757;52.258;12.840;2023-05-08T08:28:31;12.10;99.90
7461;DHT22;6757;52.258;12.840;2023-05-08T08:30:59;12.20;99.90
7461;DHT22;6757;52.258;12.840;2023-05-08T08:33:27;12.30;99.90
7461;DHT22;6757;52.258;12.840;2023-05-08T08:35:55;12.30;99.90
7461;DHT22;6757;52.258;12.840;2023-05-08T08:38:21;12.40;99.90
7461;DHT22;6757;52.258;12.840;2023-05-08T08:40:48;12.40;99.90
7461;DHT22;6757;52.258;12.840;2023-05-08T08:43:16;12.50;99.90
7461;DHT22;6757;52.258;12.840;2023-05-08T08:45:43;12.50;99.90
7461;DHT22;6757;52.258;12.840;2023-05-08T08:48:10;12.60;99.90
7461;DHT22;6757;52.258;12.840;2023-05-08T08:50:42;12.60;99.90
7461;DHT22;6757;52.258;12.840;2023-05-08T08:53:13;12.70;99.90
7461;DHT22;6757;52.258;12.840;2023-05-08T08:55:45;12.70;99.90
7461;DHT22;6757;52.258;12.840;2023-05-08T08:58:19;13.30;99.90
7461;DHT22;6757;52.258;12.840;2023-05-08T09:00:48;12.90;99.90
7461;DHT22;6757;52.258;12.840;2023-05-08T09:03:16;13.00;99.90
7461;DHT22;6757;52.258;12.840;2023-05-08T09:05:44;13.00;99.90
7461;DHT22;6757;52.258;12.840;2023-05-08T09:08:13;13.10;99.90
7461;DHT22;6757;52.258;12.840;2023-05-08T09:10:40;13.20;99.90
7461;DHT22;6757;52.258;12.840;2023-05-08T09:13:07;13.20;99.90
7461;DHT22;6757;52.258;12.840;2023-05-08T09:15:34;13.40;99.90
7461;DHT22;6757;52.258;12.840;2023-05-08T09:18:01;13.50;99.90
7461;DHT22;6757;52.258;12.840;2023-05-08T09:20:28;13.60;99.90
7461;DHT22;6757;52.258;12.840;2023-05-08T09:23:00;13.60;99.90
7461;DHT22;6757;52.258;12.840;2023-05-08T09:25:40;13.80;99.90
7461;DHT22;6757;52.258;12.840;2023-05-08T09:28:17;13.90;99.90
7461;DHT22;6757;52.258;12.840;2023-05-08T09:30:50;14.00;99.90
7461;DHT22;6757;52.258;12.840;2023-05-08T09:33:18;14.10;99.90
7461;DHT22;6757;52.258;12.840;2023-05-08T09:35:46;14.20;99.90
7461;DHT22;6757;52.258;12.840;2023-05-08T09:38:34;14.20;99.90
7461;DHT22;6757;52.258;12.840;2023-05-08T09:41:06;14.30;99.60
7461;DHT22;6757;52.258;12.840;2023-05-08T09:43:34;14.40;99.30
7461;DHT22;6757;52.258;12.840;2023-05-08T09:46:20;14.50;99.10
7461;DHT22;6757;52.258;12.840;2023-05-08T09:48:48;14.60;98.60
7461;DHT22;6757;52.258;12.840;2023-05-08T09:51:16;14.70;98.20
7461;DHT22;6757;52.258;12.840;2023-05-08T09:53:44;14.70;97.70
7461;DHT22;6757;52.258;12.840;2023-05-08T09:56:11;14.80;97.00
7461;DHT22;6757;52.258;12.840;2023-05-08T09:58:40;14.90;96.30
7461;DHT22;6757;52.258;12.840;2023-05-08T10:01:26;14.90;95.70
7461;DHT22;6757;52.258;12.840;2023-05-08T10:03:54;15.00;95.30
7461;DHT22;6757;52.258;12.840;2023-05-08T10:06:21;15.10;94.70
7461;DHT22;6757;52.258;12.840;2023-05-08T10:09:05;15.10;94.20
7461;DHT22;6757;52.258;12.840;2023-05-08T10:11:33;15.20;93.50
7461;DHT22;6757;52.258;12.840;2023-05-08T10:14:00;15.30;93.30
7461;DHT22;6757;52.258;12.840;2023-05-08T10:16:28;15.30;93.00
7461;DHT22;6757;52.258;12.840;2023-05-08T10:19:00;15.40;92.50
7461;DHT22;6757;52.258;12.840;2023-05-08T10:21:34;15.50;91.90
7461;DHT22;6757;52.258;12.840;2023-05-08T10:24:05;15.50;91.40
7461;DHT22;6757;52.258;12.840;2023-05-08T10:26:37;15.60;91.20
7461;DHT22;6757;52.258;12.840;2023-05-08T10:29:14;15.70;90.90
7461;DHT22;6757;52.258;12.840;2023-05-08T10:31:45;15.70;90.60
7461;DHT22;6757;52.258;12.840;2023-05-08T10:34:18;15.80;90.40
7461;DHT22;6757;52.258;12.840;2023-05-08T10:36:46;15.90;89.40
7461;DHT22;6757;52.258;12.840;2023-05-08T10:39:15;15.90;88.80
7461;DHT22;6757;52.258;12.840;2023-05-08T10:41:42;16.00;88.50
7461;DHT22;6757;52.258;12.840;2023-05-08T10:44:09;16.10;88.20
7461;DHT22;6757;52.258;12.840;2023-05-08T10:46:39;16.20;87.10
7461;DHT22;6757;52.258;12.840;2023-05-08T10:49:17;16.30;86.10
7461;DHT22;6757;52.258;12.840;2023-05-08T10:51:52;16.40;84.40
7461;DHT22;6757;52.258;12.840;2023-05-08T10:54:37;16.40;83.20
7461;DHT22;6757;52.258;12.840;2023-05-08T10:57:23;16.50;81.80
7461;DHT22;6757;52.258;12.840;2023-05-08T10:59:50;16.60;80.90
7461;DHT22;6757;52.258;12.840;2023-05-08T11:02:25;16.60;80.20
7461;DHT22;6757;52.258;12.840;2023-05-08T11:04:54;16.70;80.00
7461;DHT22;6757;52.258;12.840;2023-05-08T11:07:29;16.80;77.40
7461;DHT22;6757;52.258;12.840;2023-05-08T11:10:12;16.90;77.40
7461;DHT22;6757;52.258;12.840;2023-05-08T11:12:39;17.00;76.20
7461;DHT22;6757;52.258;12.840;2023-05-08T11:15:14;17.00;74.90
7461;DHT22;6757;52.258;12.840;2023-05-08T11:17:42;17.10;74.00
7461;DHT22;6757;52.258;12.840;2023-05-08T11:20:22;17.20;73.50
7461;DHT22;6757;52.258;12.840;2023-05-08T11:22:49;17.30;72.90
7461;DHT22;6757;52.258;12.840;2023-05-08T11:25:17;17.30;72.00
7461;DHT22;6757;52.258;12.840;2023-05-08T11:30:44;17.40;70.50
7461;DHT22;6757;52.258;12.840;2023-05-08T11:33:15;17.50;70.10
7461;DHT22;6757;52.258;12.840;2023-05-08T11:35:45;17.60;69.40
7461;DHT22;6757;52.258;12.840;2023-05-08T11:38:15;17.70;68.30
7461;DHT22;6757;52.258;12.840;2023-05-08T11:40:46;17.90;66.80
7461;DHT22;6757;52.258;12.840;2023-05-08T11:43:25;17.90;65.60
7461;DHT22;6757;52.258;12.840;2023-05-08T11:46:22;18.10;65.10
7461;DHT22;6757;52.258;12.840;2023-05-08T11:48:57;18.20;64.70
7461;DHT22;6757;52.258;12.840;2023-05-08T11:51:29;18.30;64.10
7461;DHT22;6757;52.258;12.840;2023-05-08T11:53:58;18.40;64.30
7461;DHT22;6757;52.258;12.840;2023-05-08T11:56:26;18.40;64.30
7461;DHT22;6757;52.258;12.840;2023-05-08T11:59:01;18.50;64.20
7461;DHT22;6757;52.258;12.840;2023-05-08T12:01:30;18.60;63.70
7461;DHT22;6757;52.258;12.840;2023-05-08T12:04:01;18.60;63.50
7461;DHT22;6757;52.258;12.840;2023-05-08T12:06:30;18.80;63.70
7461;DHT22;6757;52.258;12.840;2023-05-08T12:08:58;19.40;63.90
7461;DHT22;6757;52.258;12.840;2023-05-08T12:11:27;19.20;63.20
7461;DHT22;6757;52.258;12.840;2023-05-08T12:13:54;19.30;63.10
7461;DHT22;6757;52.258;12.840;2023-05-08T12:16:22;19.50;62.70
7461;DHT22;6757;52.258;12.840;2023-05-08T12:18:51;19.80;62.40
7461;DHT22;6757;52.258;12.840;2023-05-08T12:21:18;20.30;61.70
7461;DHT22;6757;52.258;12.840;2023-05-08T12:23:47;20.80;60.10
7461;DHT22;6757;52.258;12.840;2023-05-08T12:26:14;21.40;59.10
7461;DHT22;6757;52.258;12.840;2023-05-08T12:28:44;21.90;57.50
7461;DHT22;6757;52.258;12.840;2023-05-08T12:31:12;22.40;56.80
7461;DHT22;6757;52.258;12.840;2023-05-08T12:33:40;22.90;56.10
7461;DHT22;6757;52.258;12.840;2023-05-08T12:36:08;23.40;55.50
7461;DHT22;6757;52.258;12.840;2023-05-08T12:38:35;23.90;54.10
7461;DHT22;6757;52.258;12.840;2023-05-08T12:41:02;24.40;53.20
7461;DHT22;6757;52.258;12.840;2023-05-08T12:43:32;24.80;52.50
7461;DHT22;6757;52.258;12.840;2023-05-08T12:46:02;25.10;51.60
7461;DHT22;6757;52.258;12.840;2023-05-08T12:48:30;25.60;51.30
7461;DHT22;6757;52.258;12.840;2023-05-08T12:51:01;26.00;50.40
7461;DHT22;6757;52.258;12.840;2023-05-08T12:53:30;26.40;49.60
7461;DHT22;6757;52.258;12.840;2023-05-08T12:56:00;26.80;49.30
7461;DHT22;6757;52.258;12.840;2023-05-08T12:58:30;27.20;48.00
7461;DHT22;6757;52.258;12.840;2023-05-08T13:01:08;27.60;47.20
7461;DHT22;6757;52.258;12.840;2023-05-08T13:03:38;28.10;46.80
7461;DHT22;6757;52.258;12.840;2023-05-08T13:06:06;28.70;46.30
7461;DHT22;6757;52.258;12.840;2023-05-08T13:08:35;29.10;44.70
7461;DHT22;6757;52.258;12.840;2023-05-08T13:11:03;29.40;43.30
7461;DHT22;6757;52.258;12.840;2023-05-08T13:13:32;29.60;42.70
7461;DHT22;6757;52.258;12.840;2023-05-08T13:16:01;29.80;42.40
7461;DHT22;6757;52.258;12.840;2023-05-08T13:18:31;29.90;42.20
7461;DHT22;6757;52.258;12.840;2023-05-08T13:21:00;30.20;42.80
7461;DHT22;6757;52.258;12.840;2023-05-08T13:23:28;30.40;41.80
7461;DHT22;6757;52.258;12.840;2023-05-08T13:25:54;30.70;41.40
7461;DHT22;6757;52.258;12.840;2023-05-08T13:28:21;30.70;39.30
7461;DHT22;6757;52.258;12.840;2023-05-08T13:30:48;30.70;38.70
7461;DHT22;6757;52.258;12.840;2023-05-08T13:33:15;30.70;38.50
7461;DHT22;6757;52.258;12.840;2023-05-08T13:35:44;30.70;38.50
7461;DHT22;6757;52.258;12.840;2023-05-08T13:38:11;30.80;38.30
7461;DHT22;6757;52.258;12.840;2023-05-08T13:40:38;30.80;38.20
7461;DHT22;6757;52.258;12.840;2023-05-08T13:43:04;30.90;38.00
7461;DHT22;6757;52.258;12.840;2023-05-08T13:45:31;31.10;38.10
7461;DHT22;6757;52.258;12.840;2023-05-08T13:47:58;31.30;38.10
7461;DHT22;6757;52.258;12.840;2023-05-08T13:50:25;31.50;37.60
7461;DHT22;6757;52.258;12.840;2023-05-08T13:52:54;31.40;36.60
7461;DHT22;6757;52.258;12.840;2023-05-08T13:55:21;31.20;36.50
7461;DHT22;6757;52.258;12.840;2023-05-08T13:57:48;31.10;36.30
7461;DHT22;6757;52.258;12.840;2023-05-08T14:00:15;31.10;36.20
7461;DHT22;6757;52.258;12.840;2023-05-08T14:02:43;31.10;36.30
7461;DHT22;6757;52.258;12.840;2023-05-08T14:05:10;31.20;36.40
7461;DHT22;6757;52.258;12.840;2023-05-08T14:07:37;31.40;36.70
7461;DHT22;6757;52.258;12.840;2023-05-08T14:10:06;31.40;36.20
7461;DHT22;6757;52.258;12.840;2023-05-08T14:12:33;31.40;35.90
7461;DHT22;6757;52.258;12.840;2023-05-08T14:15:02;31.40;35.80
7461;DHT22;6757;52.258;12.840;2023-05-08T14:17:29;31.20;35.50
7461;DHT22;6757;52.258;12.840;2023-05-08T14:19:57;31.10;35.40
7461;DHT22;6757;52.258;12.840;2023-05-08T14:22:25;31.00;35.30
7461;DHT22;6757;52.258;12.840;2023-05-08T14:24:52;30.90;35.20
7461;DHT22;6757;52.258;12.840;2023-05-08T14:27:22;30.90;35.50
7461;DHT22;6757;52.258;12.840;2023-05-08T14:29:49;30.90;35.40
7461;DHT22;6757;52.258;12.840;2023-05-08T14:32:18;30.90;35.50
7461;DHT22;6757;52.258;12.840;2023-05-08T14:34:46;30.60;35.00
7461;DHT22;6757;52.258;12.840;2023-05-08T14:37:13;30.40;35.30
7461;DHT22;6757;52.258;12.840;2023-05-08T14:39:42;30.20;35.40
7461;DHT22;6757;52.258;12.840;2023-05-08T14:42:09;30.20;35.40
7461;DHT22;6757;52.258;12.840;2023-05-08T14:44:37;30.20;35.40
7461;DHT22;6757;52.258;12.840;2023-05-08T14:47:04;30.30;35.50
7461;DHT22;6757;52.258;12.840;2023-05-08T14:49:31;30.40;36.30
7461;DHT22;6757;52.258;12.840;2023-05-08T14:51:58;30.50;35.70
7461;DHT22;6757;52.258;12.840;2023-05-08T14:54:25;30.40;35.70
7461;DHT22;6757;52.258;12.840;2023-05-08T14:56:52;30.40;35.70
7461;DHT22;6757;52.258;12.840;2023-05-08T14:59:19;30.40;35.10
7461;DHT22;6757;52.258;12.840;2023-05-08T15:01:47;30.10;34.80
7461;DHT22;6757;52.258;12.840;2023-05-08T15:04:14;29.90;35.20
7461;DHT22;6757;52.258;12.840;2023-05-08T15:06:41;29.90;35.40
7461;DHT22;6757;52.258;12.840;2023-05-08T15:09:08;29.70;35.00
7461;DHT22;6757;52.258;12.840;2023-05-08T15:11:35;29.50;35.10
7461;DHT22;6757;52.258;12.840;2023-05-08T15:14:02;29.40;35.40
7461;DHT22;6757;52.258;12.840;2023-05-08T15:16:30;29.50;35.50
7461;DHT22;6757;52.258;12.840;2023-05-08T15:18:58;29.40;35.40
7461;DHT22;6757;52.258;12.840;2023-05-08T15:21:25;29.20;35.40
7461;DHT22;6757;52.258;12.840;2023-05-08T15:23:53;29.30;35.60
7461;DHT22;6757;52.258;12.840;2023-05-08T15:26:21;29.30;35.80
7461;DHT22;6757;52.258;12.840;2023-05-08T15:28:48;29.30;36.00
7461;DHT22;6757;52.258;12.840;2023-05-08T15:31:15;29.30;36.20
7461;DHT22;6757;52.258;12.840;2023-05-08T15:33:42;29.40;36.40
7461;DHT22;6757;52.258;12.840;2023-05-08T15:36:12;29.40;36.20
7461;DHT22;6757;52.258;12.840;2023-05-08T15:38:39;29.40;35.70
7461;DHT22;6757;52.258;12.840;2023-05-08T15:41:06;29.30;35.30
7461;DHT22;6757;52.258;12.840;2023-05-08T15:43:35;29.10;35.40
7461;DHT22;6757;52.258;12.840;2023-05-08T15:46:02;29.10;35.70
7461;DHT22;6757;52.258;12.840;2023-05-08T15:48:29;28.80;35.40
7461;DHT22;6757;52.258;12.840;2023-05-08T15:50:56;28.60;35.60
7461;DHT22;6757;52.258;12.840;2023-05-08T15:53:25;28.60;35.90
7461;DHT22;6757;52.258;12.840;2023-05-08T15:55:52;28.50;35.90
7461;DHT22;6757;52.258;12.840;2023-05-08T15:58:20;28.40;36.00
7461;DHT22;6757;52.258;12.840;2023-05-08T16:00:46;28.50;36.10
7461;DHT22;6757;52.258;12.840;2023-05-08T16:03:13;28.40;36.20
7461;DHT22;6757;52.258;12.840;2023-05-08T16:05:40;28.40;36.30
7461;DHT22;6757;52.258;12.840;2023-05-08T16:08:07;28.30;36.30
7461;DHT22;6757;52.258;12.840;2023-05-08T16:10:38;28.30;36.30
7461;DHT22;6757;52.258;12.840;2023-05-08T16:13:05;28.20;36.20